PWSweather.com
Personal Weather Stations
Station Observations
SHAHALMS1
Eftra, Falkenberg, HA

EftraFalkenberg, HA

Lat: 56.85, Lon: 12.65

Elevation: 140

Station Type:

http://hem.passagen.se/risarp101

High Low Average
Temperature 58.1°F14.5°C 41.5°F5.3°C 49.8°F9.9°C
Dew Point 45.1°F7.3°C 34.9°F1.6°C 40.2°F4.6°C
Winds 7.2 mph 11.6 kmh Calm Calm 2.0 mph SW3.2 kmh SW
Wind Gusts 17.2 mph27.7 kmh -- 7.0 mph11.3 kmh
Humidity 79% 61% 70%
Pressure 29.74 in1007.1 mb 29.65 in1004.1 mb -
Precipitation 0.00 in0.0 mm - -
Hour Temp Dew Point Humidity Winds Wind Gusts Pressure Precip Precip Rate Daily Precip Total
12:00 AM 49.1°F9.5°C 39.4°F4.1°C 69% 1.2 mph W1.9 kmh W 6.1 mph9.8 kmh 29.74 in1007.1 mb 0.00 in0.0 mm 0.00 in0.0 mm 0.00 in0.0 mm
12:15 AM 48.7°F9.3°C 39.0°F3.9°C 69% 1.3 mph W2.1 kmh W 5.7 mph9.2 kmh 29.74 in1007.1 mb 0.00 in0.0 mm 0.00 in0.0 mm 0.00 in0.0 mm
12:30 AM 48.6°F9.2°C 39.2°F4.0°C 70% 0.3 mph W0.5 kmh W 3.9 mph6.3 kmh 29.71 in1006.1 mb 0.00 in0.0 mm 0.00 in0.0 mm 0.00 in0.0 mm
12:45 AM 48.6°F9.2°C 39.6°F4.2°C 71% 0.4 mph W0.6 kmh W 8.6 mph13.8 kmh 29.71 in1006.1 mb 0.00 in0.0 mm 0.00 in0.0 mm 0.00 in0.0 mm
01:00 AM 48.7°F9.3°C 40.1°F4.5°C 72% 0.8 mph W1.3 kmh W 8.6 mph13.8 kmh 29.71 in1006.1 mb 0.00 in0.0 mm 0.00 in0.0 mm 0.00 in0.0 mm
01:15 AM 48.7°F9.3°C 40.1°F4.5°C 72% 1.3 mph W2.1 kmh W 10.0 mph16.1 kmh 29.71 in1006.1 mb 0.00 in0.0 mm 0.00 in0.0 mm 0.00 in0.0 mm
01:30 AM 48.4°F9.1°C 39.4°F4.1°C 71% 0.9 mph WSW1.4 kmh WSW 8.9 mph14.3 kmh 29.71 in1006.1 mb 0.00 in0.0 mm 0.00 in0.0 mm 0.00 in0.0 mm
01:45 AM 48.0°F8.9°C 39.4°F4.1°C 72% 0.2 mph W0.3 kmh W 4.7 mph7.6 kmh 29.71 in1006.1 mb 0.00 in0.0 mm 0.00 in0.0 mm 0.00 in0.0 mm
02:00 AM 47.7°F8.7°C 39.1°F3.9°C 72% 0.3 mph W0.5 kmh W 5.7 mph9.2 kmh 29.71 in1006.1 mb 0.00 in0.0 mm 0.00 in0.0 mm 0.00 in0.0 mm
02:15 AM 47.7°F8.7°C 39.1°F3.9°C 72% 1.3 mph W2.1 kmh W 9.7 mph15.6 kmh 29.71 in1006.1 mb 0.00 in0.0 mm 0.00 in0.0 mm 0.00 in0.0 mm
02:30 AM 47.7°F8.7°C 39.1°F3.9°C 72% 0.6 mph WSW1.0 kmh WSW 5.7 mph9.2 kmh 29.71 in1006.1 mb 0.00 in0.0 mm 0.00 in0.0 mm 0.00 in0.0 mm
02:45 AM 47.8°F8.8°C 39.6°F4.2°C 73% 1.1 mph W1.8 kmh W 7.9 mph12.7 kmh 29.71 in1006.1 mb 0.00 in0.0 mm 0.00 in0.0 mm 0.00 in0.0 mm
03:00 AM 47.7°F8.7°C 39.4°F4.1°C 73% 1.3 mph W2.1 kmh W 5.7 mph9.2 kmh 29.68 in1005.1 mb 0.00 in0.0 mm 0.00 in0.0 mm 0.00 in0.0 mm
03:15 AM 47.7°F8.7°C 39.1°F3.9°C 72% 1.6 mph WNW2.6 kmh WNW 9.3 mph15.0 kmh 29.68 in1005.1 mb 0.00 in0.0 mm 0.00 in0.0 mm 0.00 in0.0 mm
03:30 AM 47.3°F8.5°C 38.7°F3.7°C 72% 0.2 mph WSW0.3 kmh WSW 2.5 mph4.0 kmh 29.68 in1005.1 mb 0.00 in0.0 mm 0.00 in0.0 mm 0.00 in0.0 mm
03:45 AM 47.5°F8.6°C 39.3°F4.1°C 73% 1.7 mph W2.7 kmh W 10.4 mph16.7 kmh 29.68 in1005.1 mb 0.00 in0.0 mm 0.00 in0.0 mm 0.00 in0.0 mm
04:00 AM 47.7°F8.7°C 39.8°F4.3°C 74% 1.0 mph WNW1.6 kmh WNW 5.0 mph8.0 kmh 29.68 in1005.1 mb 0.00 in0.0 mm 0.00 in0.0 mm 0.00 in0.0 mm
04:15 AM 47.7°F8.7°C 39.8°F4.3°C 74% 0.6 mph W1.0 kmh W 7.5 mph12.1 kmh 29.68 in1005.1 mb 0.00 in0.0 mm 0.00 in0.0 mm 0.00 in0.0 mm
04:30 AM 47.7°F8.7°C 39.4°F4.1°C 73% 1.1 mph W1.8 kmh W 7.9 mph12.7 kmh 29.65 in1004.1 mb 0.00 in0.0 mm 0.00 in0.0 mm 0.00 in0.0 mm
04:45 AM 47.5°F8.6°C 39.3°F4.1°C 73% 0.2 mph W0.3 kmh W 3.2 mph5.1 kmh 29.68 in1005.1 mb 0.00 in0.0 mm 0.00 in0.0 mm 0.00 in0.0 mm
05:00 AM 47.7°F8.7°C 39.4°F4.1°C 73% 0.8 mph W1.3 kmh W 5.4 mph8.7 kmh 29.68 in1005.1 mb 0.00 in0.0 mm 0.00 in0.0 mm 0.00 in0.0 mm
05:15 AM 47.5°F8.6°C 39.3°F4.1°C 73% 0.5 mph SW0.8 kmh SW 3.9 mph6.3 kmh 29.68 in1005.1 mb 0.00 in0.0 mm 0.00 in0.0 mm 0.00 in0.0 mm
05:30 AM 47.7°F8.7°C 39.4°F4.1°C 73% 0.1 mph W0.2 kmh W 1.8 mph2.9 kmh 29.68 in1005.1 mb 0.00 in0.0 mm 0.00 in0.0 mm 0.00 in0.0 mm
05:45 AM 47.7°F8.7°C 39.4°F4.1°C 73% 0.7 mph WNW1.1 kmh WNW 4.3 mph6.9 kmh 29.65 in1004.1 mb 0.00 in0.0 mm 0.00 in0.0 mm 0.00 in0.0 mm
06:00 AM 47.7°F8.7°C 39.4°F4.1°C 73% 0.6 mph WSW1.0 kmh WSW 6.8 mph10.9 kmh 29.65 in1004.1 mb 0.00 in0.0 mm 0.00 in0.0 mm 0.00 in0.0 mm
06:15 AM 47.7°F8.7°C 39.4°F4.1°C 73% 0.9 mph NW1.4 kmh NW 6.1 mph9.8 kmh 29.65 in1004.1 mb 0.00 in0.0 mm 0.00 in0.0 mm 0.00 in0.0 mm
06:30 AM 47.8°F8.8°C 39.6°F4.2°C 73% 0.4 mph SW0.6 kmh SW 4.3 mph6.9 kmh 29.68 in1005.1 mb 0.00 in0.0 mm 0.00 in0.0 mm 0.00 in0.0 mm
06:45 AM 47.8°F8.8°C 39.2°F4.0°C 72% 0.2 mph W0.3 kmh W 3.6 mph5.8 kmh 29.68 in1005.1 mb 0.00 in0.0 mm 0.00 in0.0 mm 0.00 in0.0 mm
07:00 AM 47.7°F8.7°C 39.4°F4.1°C 73% 0.5 mph SW0.8 kmh SW 4.3 mph6.9 kmh 29.65 in1004.1 mb 0.00 in0.0 mm 0.00 in0.0 mm 0.00 in0.0 mm
07:15 AM 47.8°F8.8°C 39.6°F4.2°C 73% Calm Calm -- 29.68 in1005.1 mb 0.00 in0.0 mm 0.00 in0.0 mm 0.00 in0.0 mm
07:30 AM 48.2°F9.0°C 40.3°F4.6°C 74% 2.2 mph WSW3.5 kmh WSW 7.9 mph12.7 kmh 29.65 in1004.1 mb 0.00 in0.0 mm 0.00 in0.0 mm 0.00 in0.0 mm
07:45 AM 48.9°F9.4°C 41.0°F5.0°C 74% 0.9 mph W1.4 kmh W 5.0 mph8.0 kmh 29.68 in1005.1 mb 0.00 in0.0 mm 0.00 in0.0 mm 0.00 in0.0 mm
08:00 AM 49.6°F9.8°C 41.7°F5.4°C 74% 2.8 mph W4.5 kmh W 9.7 mph15.6 kmh 29.68 in1005.1 mb 0.00 in0.0 mm 0.00 in0.0 mm 0.00 in0.0 mm
08:15 AM 50.5°F10.3°C 42.2°F5.7°C 73% 2.0 mph W3.2 kmh W 10.4 mph16.7 kmh 29.68 in1005.1 mb 0.00 in0.0 mm 0.00 in0.0 mm 0.00 in0.0 mm
08:30 AM 51.4°F10.8°C 42.7°F5.9°C 72% 3.6 mph W5.8 kmh W 9.3 mph15.0 kmh 29.68 in1005.1 mb 0.00 in0.0 mm 0.00 in0.0 mm 0.00 in0.0 mm
08:45 AM 52.2°F11.2°C 43.0°F6.1°C 71% 4.1 mph WSW6.6 kmh WSW 10.0 mph16.1 kmh 29.68 in1005.1 mb 0.00 in0.0 mm 0.00 in0.0 mm 0.00 in0.0 mm
09:00 AM 52.9°F11.6°C 43.4°F6.3°C 70% 4.4 mph W7.1 kmh W 10.4 mph16.7 kmh 29.68 in1005.1 mb 0.00 in0.0 mm 0.00 in0.0 mm 0.00 in0.0 mm
09:15 AM 53.1°F11.7°C 42.8°F6.0°C 68% 4.4 mph W7.1 kmh W 9.7 mph15.6 kmh 29.71 in1006.1 mb 0.00 in0.0 mm 0.00 in0.0 mm 0.00 in0.0 mm
09:30 AM 53.2°F11.8°C 42.6°F5.9°C 67% 3.0 mph W4.8 kmh W 9.7 mph15.6 kmh 29.71 in1006.1 mb 0.00 in0.0 mm 0.00 in0.0 mm 0.00 in0.0 mm
09:45 AM 53.1°F11.7°C 42.0°F5.6°C 66% 4.1 mph W6.6 kmh W 9.7 mph15.6 kmh 29.71 in1006.1 mb 0.00 in0.0 mm 0.00 in0.0 mm 0.00 in0.0 mm
10:00 AM 53.6°F12.0°C 42.5°F5.8°C 66% 4.7 mph W7.6 kmh W 11.8 mph19.0 kmh 29.71 in1006.1 mb 0.00 in0.0 mm 0.00 in0.0 mm 0.00 in0.0 mm
10:15 AM 53.8°F12.1°C 42.3°F5.7°C 65% 5.8 mph WSW9.3 kmh WSW 15.0 mph24.1 kmh 29.71 in1006.1 mb 0.00 in0.0 mm 0.00 in0.0 mm 0.00 in0.0 mm
10:30 AM 54.0°F12.2°C 42.5°F5.8°C 65% 6.0 mph W9.7 kmh W 12.9 mph20.8 kmh 29.71 in1006.1 mb 0.00 in0.0 mm 0.00 in0.0 mm 0.00 in0.0 mm
10:45 AM 54.7°F12.6°C 43.1°F6.2°C 65% 4.4 mph WSW7.1 kmh WSW 11.5 mph18.5 kmh 29.71 in1006.1 mb 0.00 in0.0 mm 0.00 in0.0 mm 0.00 in0.0 mm
11:00 AM 54.9°F12.7°C 42.9°F6.1°C 64% 6.5 mph WSW10.5 kmh WSW 14.7 mph23.7 kmh 29.71 in1006.1 mb 0.00 in0.0 mm 0.00 in0.0 mm 0.00 in0.0 mm
11:15 AM 54.5°F12.5°C 42.6°F5.9°C 64% 6.1 mph W9.8 kmh W 16.5 mph26.6 kmh 29.71 in1006.1 mb 0.00 in0.0 mm 0.00 in0.0 mm 0.00 in0.0 mm
11:30 AM 55.0°F12.8°C 43.1°F6.2°C 64% 6.0 mph W9.7 kmh W 12.5 mph20.1 kmh 29.71 in1006.1 mb 0.00 in0.0 mm 0.00 in0.0 mm 0.00 in0.0 mm
11:45 AM 55.2°F12.9°C 42.8°F6.0°C 63% 6.2 mph W10.0 kmh W 11.8 mph19.0 kmh 29.71 in1006.1 mb 0.00 in0.0 mm 0.00 in0.0 mm 0.00 in0.0 mm
12:00 PM 54.7°F12.6°C 42.3°F5.7°C 63% 4.8 mph W7.7 kmh W 12.2 mph19.6 kmh 29.71 in1006.1 mb 0.00 in0.0 mm 0.00 in0.0 mm 0.00 in0.0 mm
12:15 PM 55.8°F13.2°C 43.8°F6.6°C 64% 5.4 mph WSW8.7 kmh WSW 11.8 mph19.0 kmh 29.71 in1006.1 mb 0.00 in0.0 mm 0.00 in0.0 mm 0.00 in0.0 mm
12:30 PM 55.9°F13.3°C 43.5°F6.4°C 63% 5.8 mph WSW9.3 kmh WSW 11.8 mph19.0 kmh 29.71 in1006.1 mb 0.00 in0.0 mm 0.00 in0.0 mm 0.00 in0.0 mm
12:45 PM 57.2°F14.0°C 44.7°F7.1°C 63% 6.1 mph W9.8 kmh W 13.6 mph21.9 kmh 29.71 in1006.1 mb 0.00 in0.0 mm 0.00 in0.0 mm 0.00 in0.0 mm
01:00 PM 57.7°F14.3°C 44.8°F7.1°C 62% 5.9 mph W9.5 kmh W 11.5 mph18.5 kmh 29.71 in1006.1 mb 0.00 in0.0 mm 0.00 in0.0 mm 0.00 in0.0 mm
01:15 PM 58.1°F14.5°C 45.1°F7.3°C 62% 5.6 mph W9.0 kmh W 10.4 mph16.7 kmh 29.71 in1006.1 mb 0.00 in0.0 mm 0.00 in0.0 mm 0.00 in0.0 mm
01:30 PM 57.0°F13.9°C 43.7°F6.5°C 61% 7.2 mph W11.6 kmh W 17.2 mph27.7 kmh 29.71 in1006.1 mb 0.00 in0.0 mm 0.00 in0.0 mm 0.00 in0.0 mm
01:45 PM 55.8°F13.2°C 42.5°F5.8°C 61% 4.2 mph W6.8 kmh W 12.2 mph19.6 kmh 29.71 in1006.1 mb 0.00 in0.0 mm 0.00 in0.0 mm 0.00 in0.0 mm
02:00 PM 55.2°F12.9°C 42.0°F5.6°C 61% 4.8 mph W7.7 kmh W 9.3 mph15.0 kmh 29.71 in1006.1 mb 0.00 in0.0 mm 0.00 in0.0 mm 0.00 in0.0 mm
02:15 PM 54.9°F12.7°C 41.7°F5.4°C 61% 4.7 mph WNW7.6 kmh WNW 12.9 mph20.8 kmh 29.71 in1006.1 mb 0.00 in0.0 mm 0.00 in0.0 mm 0.00 in0.0 mm
02:30 PM 54.5°F12.5°C 41.3°F5.2°C 61% 3.6 mph W5.8 kmh W 10.0 mph16.1 kmh 29.71 in1006.1 mb 0.00 in0.0 mm 0.00 in0.0 mm 0.00 in0.0 mm
02:45 PM 54.7°F12.6°C 41.9°F5.5°C 62% 4.7 mph W7.6 kmh W 10.0 mph16.1 kmh 29.71 in1006.1 mb 0.00 in0.0 mm 0.00 in0.0 mm 0.00 in0.0 mm
03:00 PM 55.2°F12.9°C 42.4°F5.8°C 62% 4.6 mph W7.4 kmh W 9.3 mph15.0 kmh 29.71 in1006.1 mb 0.00 in0.0 mm 0.00 in0.0 mm 0.00 in0.0 mm
03:15 PM 54.9°F12.7°C 42.1°F5.6°C 62% 4.7 mph W7.6 kmh W 12.2 mph19.6 kmh 29.71 in1006.1 mb 0.00 in0.0 mm 0.00 in0.0 mm 0.00 in0.0 mm
03:30 PM 54.5°F12.5°C 41.7°F5.4°C 62% 4.8 mph W7.7 kmh W 15.7 mph25.3 kmh 29.71 in1006.1 mb 0.00 in0.0 mm 0.00 in0.0 mm 0.00 in0.0 mm
03:45 PM 53.2°F11.8°C 40.5°F4.7°C 62% 2.2 mph W3.5 kmh W 11.1 mph17.9 kmh 29.71 in1006.1 mb 0.00 in0.0 mm 0.00 in0.0 mm 0.00 in0.0 mm
04:00 PM 53.4°F11.9°C 41.1°F5.1°C 63% 1.5 mph W2.4 kmh W 6.1 mph9.8 kmh 29.71 in1006.1 mb 0.00 in0.0 mm 0.00 in0.0 mm 0.00 in0.0 mm
04:15 PM 53.6°F12.0°C 41.3°F5.2°C 63% 1.4 mph W2.3 kmh W 6.1 mph9.8 kmh 29.71 in1006.1 mb 0.00 in0.0 mm 0.00 in0.0 mm 0.00 in0.0 mm
04:30 PM 52.7°F11.5°C 40.5°F4.7°C 63% 2.0 mph W3.2 kmh W 9.7 mph15.6 kmh 29.71 in1006.1 mb 0.00 in0.0 mm 0.00 in0.0 mm 0.00 in0.0 mm
04:45 PM 52.0°F11.1°C 40.2°F4.6°C 64% 0.7 mph W1.1 kmh W 7.5 mph12.1 kmh 29.71 in1006.1 mb 0.00 in0.0 mm 0.00 in0.0 mm 0.00 in0.0 mm
05:00 PM 51.6°F10.9°C 39.8°F4.3°C 64% 0.6 mph W1.0 kmh W 7.9 mph12.7 kmh 29.71 in1006.1 mb 0.00 in0.0 mm 0.00 in0.0 mm 0.00 in0.0 mm
05:15 PM 51.1°F10.6°C 39.7°F4.3°C 65% 2.1 mph W3.4 kmh W 10.0 mph16.1 kmh 29.71 in1006.1 mb 0.00 in0.0 mm 0.00 in0.0 mm 0.00 in0.0 mm
05:30 PM 50.2°F10.1°C 39.3°F4.1°C 66% 1.6 mph W2.6 kmh W 6.8 mph10.9 kmh 29.71 in1006.1 mb 0.00 in0.0 mm 0.00 in0.0 mm 0.00 in0.0 mm
05:45 PM 49.6°F9.8°C 39.5°F4.2°C 68% 0.1 mph W0.2 kmh W 1.8 mph2.9 kmh 29.71 in1006.1 mb 0.00 in0.0 mm 0.00 in0.0 mm 0.00 in0.0 mm
06:00 PM 49.1°F9.5°C 39.4°F4.1°C 69% Calm Calm 1.8 mph2.9 kmh 29.71 in1006.1 mb 0.00 in0.0 mm 0.00 in0.0 mm 0.00 in0.0 mm
06:15 PM 48.9°F9.4°C 39.9°F4.4°C 71% Calm Calm -- 29.71 in1006.1 mb 0.00 in0.0 mm 0.00 in0.0 mm 0.00 in0.0 mm
06:30 PM 48.2°F9.0°C 39.2°F4.0°C 71% Calm Calm -- 29.74 in1007.1 mb 0.00 in0.0 mm 0.00 in0.0 mm 0.00 in0.0 mm
06:45 PM 47.7°F8.7°C 39.1°F3.9°C 72% Calm Calm -- 29.71 in1006.1 mb 0.00 in0.0 mm 0.00 in0.0 mm 0.00 in0.0 mm
07:00 PM 47.3°F8.5°C 39.1°F3.9°C 73% Calm Calm -- 29.74 in1007.1 mb 0.00 in0.0 mm 0.00 in0.0 mm 0.00 in0.0 mm
07:15 PM 47.5°F8.6°C 39.6°F4.2°C 74% Calm Calm -- 29.74 in1007.1 mb 0.00 in0.0 mm 0.00 in0.0 mm 0.00 in0.0 mm
07:30 PM 47.1°F8.4°C 39.3°F4.1°C 74% 0.1 mph E0.2 kmh E 4.3 mph6.9 kmh 29.74 in1007.1 mb 0.00 in0.0 mm 0.00 in0.0 mm 0.00 in0.0 mm
07:45 PM 46.2°F7.9°C 38.4°F3.6°C 74% Calm Calm 2.1 mph3.4 kmh 29.74 in1007.1 mb 0.00 in0.0 mm 0.00 in0.0 mm 0.00 in0.0 mm
08:00 PM 46.0°F7.8°C 38.6°F3.7°C 75% 0.4 mph S0.6 kmh S 3.9 mph6.3 kmh 29.74 in1007.1 mb 0.00 in0.0 mm 0.00 in0.0 mm 0.00 in0.0 mm
08:15 PM 46.2°F7.9°C 39.1°F3.9°C 76% 1.6 mph N2.6 kmh N 8.9 mph14.3 kmh 29.74 in1007.1 mb 0.00 in0.0 mm 0.00 in0.0 mm 0.00 in0.0 mm
08:30 PM 46.0°F7.8°C 38.9°F3.8°C 76% Calm Calm -- 29.74 in1007.1 mb 0.00 in0.0 mm 0.00 in0.0 mm 0.00 in0.0 mm
08:45 PM 45.7°F7.6°C 38.5°F3.6°C 76% Calm Calm -- 29.74 in1007.1 mb 0.00 in0.0 mm 0.00 in0.0 mm 0.00 in0.0 mm
09:00 PM 45.1°F7.3°C 38.0°F3.3°C 76% Calm Calm -- 29.74 in1007.1 mb 0.00 in0.0 mm 0.00 in0.0 mm 0.00 in0.0 mm
09:15 PM 45.0°F7.2°C 37.8°F3.2°C 76% Calm Calm -- 29.74 in1007.1 mb 0.00 in0.0 mm 0.00 in0.0 mm 0.00 in0.0 mm
09:30 PM 44.2°F6.8°C 36.5°F2.5°C 74% Calm Calm -- 29.74 in1007.1 mb 0.00 in0.0 mm 0.00 in0.0 mm 0.00 in0.0 mm
09:45 PM 43.9°F6.6°C 36.5°F2.5°C 75% Calm Calm -- 29.74 in1007.1 mb 0.00 in0.0 mm 0.00 in0.0 mm 0.00 in0.0 mm
10:00 PM 43.7°F6.5°C 36.6°F2.6°C 76% 1.8 mph N2.9 kmh N 7.2 mph11.6 kmh 29.74 in1007.1 mb 0.00 in0.0 mm 0.00 in0.0 mm 0.00 in0.0 mm
10:15 PM 43.3°F6.3°C 36.3°F2.4°C 76% Calm Calm -- 29.74 in1007.1 mb 0.00 in0.0 mm 0.00 in0.0 mm 0.00 in0.0 mm
10:30 PM 43.0°F6.1°C 36.3°F2.4°C 77% Calm Calm -- 29.74 in1007.1 mb 0.00 in0.0 mm 0.00 in0.0 mm 0.00 in0.0 mm
10:45 PM 42.4°F5.8°C 35.7°F2.1°C 77% Calm Calm -- 29.74 in1007.1 mb 0.00 in0.0 mm 0.00 in0.0 mm 0.00 in0.0 mm
11:00 PM 41.9°F5.5°C 34.9°F1.6°C 76% Calm Calm -- 29.74 in1007.1 mb 0.00 in0.0 mm 0.00 in0.0 mm 0.00 in0.0 mm
11:15 PM 41.5°F5.3°C 34.9°F1.6°C 77% 0.2 mph E0.3 kmh E 4.7 mph7.6 kmh 29.71 in1006.1 mb 0.00 in0.0 mm 0.00 in0.0 mm 0.00 in0.0 mm
11:30 PM 41.5°F5.3°C 35.2°F1.8°C 78% Calm Calm -- 29.71 in1006.1 mb 0.00 in0.0 mm 0.00 in0.0 mm 0.00 in0.0 mm
11:45 PM 41.7°F5.4°C 35.7°F2.1°C 79% 0.1 mph E0.2 kmh E 5.4 mph8.7 kmh 29.71 in1006.1 mb 0.00 in0.0 mm 0.00 in0.0 mm 0.00 in0.0 mm